Smitwijs London — PCBI — position and weather

sailwx.info

Track history (hours):
 
Tides and Currents Weather Stations Pressure Air Temp Water Temp Dewpoint Dewpoint Depression Visibility Wind Speed Wind Dir Waves Ship Positions

Smitwijs London

Last reported at 2015-Sep-05 03:33 UTC. Time now 2015-Sep-05 03:40 UTC.
Position N 51°53' E 004°25'.

Length 75 m; beam 16 m.

Type: Tug. MMSI: 244098956.

Date/timePositionNaut miles runAvg speedWind from/ knotsBaromVisibWave heightAir tempDewpointWater temp
2015-Sep-05 03:33N 51°53' E 004°25'0 0.3
2015-Sep-05 02:33N 51°53' E 004°24'2 1.8
2015-Sep-05 01:33N 51°55' E 004°25'0 0.0
2015-Sep-05 00:33N 51°55' E 004°25'0 0.0
2015-Sep-04 23:33N 51°55' E 004°25'0 0.0
2015-Sep-04 22:33N 51°55' E 004°25'0 0.0
2015-Sep-04 21:33N 51°55' E 004°25'0 0.0
2015-Sep-04 20:33N 51°55' E 004°25'0 0.0
2015-Sep-04 19:33N 51°55' E 004°25'0 0.0
2015-Sep-04 18:33N 51°55' E 004°25'0 0.0
2015-Sep-04 17:33N 51°55' E 004°25'0 0.0
2015-Sep-04 16:33N 51°55' E 004°25'0 0.0
2015-Sep-04 15:33N 51°55' E 004°25'0 0.0
2015-Sep-04 14:33N 51°55' E 004°25'0 0.0
2015-Sep-04 13:33N 51°55' E 004°25'0 0.0
2015-Sep-04 12:33N 51°55' E 004°25'0 0.0
2015-Sep-04 11:33N 51°55' E 004°25'0 0.0
2015-Sep-04 10:33N 51°55' E 004°25'1 1.3
2015-Sep-04 09:33N 51°53' E 004°26'1 1.0
2015-Sep-04 08:33N 51°54' E 004°25'1 0.6
2015-Sep-04 07:33N 51°55' E 004°25'1 1.4
2015-Sep-04 06:33N 51°54' E 004°24'1 1.1
2015-Sep-04 05:33N 51°53' E 004°25'0 0.0
2015-Sep-04 04:33N 51°53' E 004°25'0 0.0
2015-Sep-04 03:33N 51°53' E 004°25'2 1.6
2015-Sep-04 02:33N 51°54' E 004°23'2 1.8
2015-Sep-04 01:33N 51°55' E 004°25'0 0.0
2015-Sep-04 00:33N 51°55' E 004°25'0 0.0
2015-Sep-03 23:33N 51°55' E 004°25'0 0.0
2015-Sep-03 22:33N 51°55' E 004°25'0 0.0
2015-Sep-03 21:33N 51°55' E 004°25'0 0.0
2015-Sep-03 20:33N 51°55' E 004°25'0 0.0
2015-Sep-03 19:33N 51°55' E 004°25'0 0.0
2015-Sep-03 18:33N 51°55' E 004°25'0 0.0
2015-Sep-03 17:33N 51°55' E 004°25'0 0.0
2015-Sep-03 16:33N 51°55' E 004°25'0 0.0
2015-Sep-03 15:33N 51°55' E 004°25'0 0.0
2015-Sep-03 14:33N 51°55' E 004°25'0 0.0
2015-Sep-03 13:33N 51°55' E 004°25'0 0.0
2015-Sep-03 12:33N 51°55' E 004°25'4 3.8
2015-Sep-03 11:33N 51°54' E 004°19'4 1.9
2015-Sep-03 09:33N 51°55' E 004°25'0 0.0
2015-Sep-03 08:33N 51°55' E 004°25'0 0.0
2015-Sep-03 07:33N 51°55' E 004°25'0 0.0
2015-Sep-03 06:33N 51°55' E 004°25'0 0.0
2015-Sep-03 05:33N 51°55' E 004°25'0 0.0
2015-Sep-03 04:33N 51°55' E 004°25'1 1.0
2015-Sep-03 03:33N 51°54' E 004°26'1 1.0
2015-Sep-03 02:33N 51°55' E 004°25'0 0.0
2015-Sep-03 01:33N 51°55' E 004°25'0 0.0
2015-Sep-03 00:33N 51°55' E 004°25'0 0.0
2015-Sep-02 23:33N 51°55' E 004°25'0 0.0
2015-Sep-02 22:33N 51°55' E 004°25'1 1.3
2015-Sep-02 21:33N 51°53' E 004°26'1 1.0
2015-Sep-02 20:33N 51°54' E 004°25'0 0.4
2015-Sep-02 19:33N 51°55' E 004°25'0 0.0
2015-Sep-02 18:33N 51°55' E 004°25'2 1.9
2015-Sep-02 17:33N 51°54' E 004°28'2 1.7
2015-Sep-02 16:33N 51°54' E 004°25'0 0.4
2015-Sep-02 15:33N 51°54' E 004°25'0 0.3
2015-Sep-02 14:33N 51°55' E 004°25'0 0.0
2015-Sep-02 13:33N 51°55' E 004°25'0 0.0
2015-Sep-02 12:33N 51°55' E 004°25'0 0.0
2015-Sep-02 11:33N 51°55' E 004°25'0 0.0
2015-Sep-02 10:33N 51°55' E 004°25'0 0.0
2015-Sep-02 09:33N 51°55' E 004°25'0 0.0
2015-Sep-02 08:33N 51°55' E 004°25'0 0.0
2015-Sep-02 07:33N 51°55' E 004°25'0 0.0
2015-Sep-02 06:33N 51°55' E 004°25'0 0.0
2015-Sep-02 05:33N 51°55' E 004°25'1 0.7
2015-Sep-02 04:33N 51°54' E 004°26'1 0.6
2015-Sep-02 03:33N 51°54' E 004°26'1 0.5
2015-Sep-02 02:33N 51°54' E 004°26'1 0.5
2015-Sep-02 01:33N 51°54' E 004°26'1 0.9
2015-Sep-02 00:33N 51°54' E 004°25'1 0.7
2015-Sep-01 23:33N 51°55' E 004°25'0 0.0
2015-Sep-01 22:33N 51°55' E 004°25'0 0.0
2015-Sep-01 21:33N 51°55' E 004°25'0 0.0
2015-Sep-01 20:33N 51°55' E 004°25'0 0.0
2015-Sep-01 19:33N 51°55' E 004°25'0 0.0
2015-Sep-01 18:33N 51°55' E 004°25'0 0.0
2015-Sep-01 17:33N 51°55' E 004°25'0 0.0
2015-Sep-01 16:33N 51°55' E 004°25'0 0.0
2015-Sep-01 15:33N 51°55' E 004°25'2 1.6
2015-Sep-01 14:33N 51°53' E 004°24'1 1.3
2015-Sep-01 13:33N 51°54' E 004°25'0 0.4
2015-Sep-01 12:33N 51°55' E 004°25'0 0.0
2015-Sep-01 11:33N 51°55' E 004°25'0 0.0
2015-Sep-01 10:33N 51°55' E 004°25'3 3.2
2015-Sep-01 09:33N 51°54' E 004°20'1 1.2
2015-Sep-01 08:34N 51°53' E 004°19'2 2.4
2015-Sep-01 07:33N 51°54' E 004°22'2 2.1
2015-Sep-01 06:33N 51°55' E 004°25'0 0.0
2015-Sep-01 05:33N 51°55' E 004°25'0 0.0
2015-Sep-01 04:33N 51°55' E 004°25'0 0.0
2015-Sep-01 03:33N 51°55' E 004°25'0 0.0
2015-Sep-01 02:33N 51°55' E 004°25'0 0.0
2015-Sep-01 01:33N 51°55' E 004°25'0 0.0
2015-Sep-01 00:33N 51°55' E 004°25'0 0.0
2015-Aug-31 23:33N 51°55' E 004°25'0 0.4
2015-Aug-31 22:33N 51°54' E 004°25'1 0.6
2015-Aug-31 21:33N 51°54' E 004°26'0 0.3
2015-Aug-31 20:33N 51°54' E 004°26'1 0.6
2015-Aug-31 19:33N 51°54' E 004°25'1 0.7
2015-Aug-31 18:33N 51°55' E 004°25'0 0.0
2015-Aug-31 17:33N 51°55' E 004°25'0 0.0
2015-Aug-31 16:33N 51°55' E 004°25'0 0.0
2015-Aug-31 15:33N 51°55' E 004°25'0 0.0
2015-Aug-31 14:33N 51°55' E 004°25'1 1.3
2015-Aug-31 13:33N 51°53' E 004°26'1 1.2
2015-Aug-31 12:33N 51°55' E 004°25'0 0.2
2015-Aug-31 11:33N 51°55' E 004°25'0 0.3
2015-Aug-31 10:33N 51°54' E 004°25'4 4.4
2015-Aug-31 09:33N 51°53' E 004°18'0 0.0
2015-Aug-31 08:33N 51°53' E 004°18'0 0.0
2015-Aug-31 07:33N 51°53' E 004°18'0 0.0
2015-Aug-31 06:33N 51°53' E 004°18'0 0.0
2015-Aug-31 05:33N 51°53' E 004°18'0 0.0
2015-Aug-31 04:33N 51°53' E 004°18'0 0.0
2015-Aug-31 03:33N 51°53' E 004°18'0 0.0
2015-Aug-31 02:33N 51°53' E 004°18'0 0.0
2015-Aug-31 01:33N 51°53' E 004°18'0 0.0
2015-Aug-31 00:33N 51°53' E 004°18'0 0.0
2015-Aug-30 23:33N 51°53' E 004°18'0 0.3
2015-Aug-30 22:33N 51°53' E 004°18'3 2.6
2015-Aug-30 21:33N 51°55' E 004°15'7 7.4
2015-Aug-30 20:34N 51°59' E 004°05'1 1.3
2015-Aug-30 19:33N 51°58' E 004°06'0 0.0
2015-Aug-30 18:33N 51°58' E 004°06'0 0.0
2015-Aug-30 17:33N 51°58' E 004°06'0 0.0
2015-Aug-30 16:33N 51°58' E 004°06'0 0.0
2015-Aug-30 15:33N 51°58' E 004°06'1 0.9
2015-Aug-30 14:33N 51°58' E 004°04'1 0.9
2015-Aug-30 13:33N 51°58' E 004°06'0 0.0
2015-Aug-30 12:33N 51°58' E 004°06'0 0.0
2015-Aug-30 11:34N 51°58' E 004°06'0 0.0
2015-Aug-30 10:34N 51°58' E 004°06'1 1.2
2015-Aug-30 09:33N 51°58' E 004°04'0 0.0
2015-Aug-30 08:34N 51°58' E 004°04'1 1.0
2015-Aug-30 07:34N 51°58' E 004°05'0 0.2
2015-Aug-30 06:34N 51°58' E 004°06'0 0.0
2015-Aug-30 05:33N 51°58' E 004°06'0 0.0
2015-Aug-30 04:34N 51°58' E 004°06'0 0.0
2015-Aug-30 03:34N 51°58' E 004°06'0 0.0
2015-Aug-30 02:33N 51°58' E 004°06'0 0.0
2015-Aug-30 01:33N 51°58' E 004°06'2 1.6
2015-Aug-30 00:33N 51°58' E 004°03'1 1.4
2015-Aug-29 23:34N 51°59' E 004°04'1 1.4
2015-Aug-29 22:33N 51°58' E 004°06'0 0.0
2015-Aug-29 21:34N 51°58' E 004°06'0 0.0
2015-Aug-29 20:33N 51°58' E 004°06'0 0.0
2015-Aug-29 19:34N 51°58' E 004°06'0 0.0
2015-Aug-29 18:33N 51°58' E 004°06'0 0.0
2015-Aug-29 17:34N 51°58' E 004°06'1 1.4
2015-Aug-29 16:33N 51°57' E 004°04'1 1.4
2015-Aug-29 15:33N 51°58' E 004°05'0 0.5
2015-Aug-29 14:34N 51°58' E 004°06'0 0.0
2015-Aug-29 13:34N 51°58' E 004°06'0 0.0
2015-Aug-29 12:34N 51°58' E 004°06'0 0.0
2015-Aug-29 11:34N 51°58' E 004°06'0 0.0
2015-Aug-29 10:34N 51°58' E 004°06'0 0.0
2015-Aug-29 09:33N 51°58' E 004°06'0 0.0
2015-Aug-29 08:34N 51°58' E 004°06'0 0.0
2015-Aug-29 07:34N 51°58' E 004°06'0 0.0
2015-Aug-29 06:34N 51°58' E 004°06'0 0.0
2015-Aug-29 05:34N 51°58' E 004°06'0 0.1
2015-Aug-29 04:34N 51°58' E 004°06'1 1.0
2015-Aug-29 03:34N 51°59' E 004°05'1 1.1
2015-Aug-29 02:34N 51°58' E 004°06'0 0.0
2015-Aug-29 01:33N 51°58' E 004°06'0 0.0
2015-Aug-29 00:34N 51°58' E 004°06'0 0.0
2015-Aug-28 23:34N 51°58' E 004°06'0 0.0
2015-Aug-28 22:34N 51°58' E 004°06'0 0.0
2015-Aug-28 21:34N 51°58' E 004°06'0 0.0
2015-Aug-28 20:34N 51°58' E 004°06'0 0.0
2015-Aug-28 19:34N 51°58' E 004°06'0 0.0
2015-Aug-28 18:34N 51°58' E 004°06'2 2.1
2015-Aug-28 17:34N 51°57' E 004°02'2 1.8
2015-Aug-28 16:34N 51°58' E 004°05'0 0.4
2015-Aug-28 15:33N 51°58' E 004°06'0 0.0
2015-Aug-28 14:34N 51°58' E 004°06'0 0.0
2015-Aug-28 13:34N 51°58' E 004°06'1 1.1
2015-Aug-28 12:34N 51°58' E 004°04'1 1.1
2015-Aug-28 11:34N 51°58' E 004°06'0 0.0
2015-Aug-28 10:33N 51°58' E 004°06'0 0.0
2015-Aug-28 09:33N 51°58' E 004°06'0 0.0
2015-Aug-28 08:34N 51°58' E 004°06'0 0.0
2015-Aug-28 07:33N 51°58' E 004°06'0 0.2
2015-Aug-28 06:34N 51°58' E 004°05'0 0.2
2015-Aug-28 05:34N 51°58' E 004°06'0 0.0
2015-Aug-28 04:34N 51°58' E 004°06'0 0.0
2015-Aug-28 03:33N 51°58' E 004°06'0 0.0
2015-Aug-28 02:33N 51°58' E 004°06'0 0.0
2015-Aug-28 01:34N 51°58' E 004°06'0 0.0
2015-Aug-28 00:33N 51°58' E 004°06'0 0.0
2015-Aug-27 23:34N 51°58' E 004°06'0 0.0
2015-Aug-27 22:34N 51°58' E 004°06'0 0.0
2015-Aug-27 21:34N 51°58' E 004°06'0 0.0
2015-Aug-27 20:34N 51°58' E 004°06'0 0.0
2015-Aug-27 19:34N 51°58' E 004°06'0 0.0
2015-Aug-27 18:34N 51°58' E 004°06'0 0.0
2015-Aug-27 17:33N 51°58' E 004°06'0 0.0
2015-Aug-27 16:34N 51°58' E 004°06'0 0.0
2015-Aug-27 15:33N 51°58' E 004°06'0 0.0
2015-Aug-27 14:33N 51°58' E 004°06'1 1.4
2015-Aug-27 13:34N 51°58' E 004°04'0 0.4
2015-Aug-27 12:33N 51°58' E 004°04'3 2.7
2015-Aug-27 11:34N 51°57' E 003°60'4 3.7
2015-Aug-27 10:34N 51°58' E 004°05'0 0.2
2015-Aug-27 09:34N 51°58' E 004°06'0 0.0
2015-Aug-27 08:34N 51°58' E 004°06'0 0.0
2015-Aug-27 07:34N 51°58' E 004°06'0 0.0
2015-Aug-27 06:34N 51°58' E 004°06'0 0.0
2015-Aug-27 05:33N 51°58' E 004°06'0 0.0
2015-Aug-27 04:34N 51°58' E 004°06'0 0.0
2015-Aug-27 03:34N 51°58' E 004°06'0 0.0
2015-Aug-27 02:34N 51°58' E 004°06'0 0.0
2015-Aug-27 01:34N 51°58' E 004°06'0 0.0
2015-Aug-27 00:34N 51°58' E 004°06'0 0.0
2015-Aug-26 23:34N 51°58' E 004°06'0 0.0
2015-Aug-26 22:34N 51°58' E 004°06'0 0.0
2015-Aug-26 21:33N 51°58' E 004°06'1 1.3
2015-Aug-26 20:34N 51°58' E 004°04'1 1.3
2015-Aug-26 19:33N 51°59' E 004°04'1 1.3
2015-Aug-26 18:34N 51°58' E 004°06'0 0.0
2015-Aug-26 17:33N 51°58' E 004°06'0 0.0
2015-Aug-26 16:34N 51°58' E 004°06'0 0.0
2015-Aug-26 15:34N 51°58' E 004°06'0 0.0
2015-Aug-26 14:34N 51°58' E 004°06'0 0.0
2015-Aug-26 13:33N 51°58' E 004°06'0 0.0
2015-Aug-26 12:34N 51°58' E 004°06'2 1.7
2015-Aug-26 11:33N 51°58' E 004°03'1 1.5
2015-Aug-26 10:33N 51°58' E 004°05'1 0.8
2015-Aug-26 09:34N 51°58' E 004°06'0 0.0
2015-Aug-26 08:34N 51°58' E 004°06'0 0.0
2015-Aug-26 07:34N 51°58' E 004°06'3 3.4
2015-Aug-26 06:34N 51°59' E 004°00'0 0.4
2015-Aug-26 05:34N 51°59' E 004°01'3 3.0
2015-Aug-26 04:34N 51°58' E 004°06'0 0.0
2015-Aug-26 03:34N 51°58' E 004°06'  
Track history (hours):
 
Tides and Currents Weather Stations Pressure Air Temp Water Temp Dewpoint Dewpoint Depression Visibility Wind Speed Wind Dir Waves Ship Positions

Smitwijs London

Last reported at 2015-Sep-05 03:33 UTC. Time now 2015-Sep-05 03:40 UTC.
Position N 51°53' E 004°25'.

Length 75 m; beam 16 m.

Type: Tug. MMSI: 244098956.

Date/timePositionNaut miles runAvg speedWind from/ knotsBaromVisibWave heightAir tempDewpointWater temp
2015-Sep-05 03:33N 51°53' E 004°25'0 0.3
2015-Sep-05 02:33N 51°53' E 004°24'2 1.8
2015-Sep-05 01:33N 51°55' E 004°25'0 0.0
2015-Sep-05 00:33N 51°55' E 004°25'0 0.0
2015-Sep-04 23:33N 51°55' E 004°25'0 0.0
2015-Sep-04 22:33N 51°55' E 004°25'0 0.0
2015-Sep-04 21:33N 51°55' E 004°25'0 0.0
2015-Sep-04 20:33N 51°55' E 004°25'0 0.0
2015-Sep-04 19:33N 51°55' E 004°25'0 0.0
2015-Sep-04 18:33N 51°55' E 004°25'0 0.0
2015-Sep-04 17:33N 51°55' E 004°25'0 0.0
2015-Sep-04 16:33N 51°55' E 004°25'0 0.0
2015-Sep-04 15:33N 51°55' E 004°25'0 0.0
2015-Sep-04 14:33N 51°55' E 004°25'0 0.0
2015-Sep-04 13:33N 51°55' E 004°25'0 0.0
2015-Sep-04 12:33N 51°55' E 004°25'0 0.0
2015-Sep-04 11:33N 51°55' E 004°25'0 0.0
2015-Sep-04 10:33N 51°55' E 004°25'1 1.3
2015-Sep-04 09:33N 51°53' E 004°26'1 1.0
2015-Sep-04 08:33N 51°54' E 004°25'1 0.6
2015-Sep-04 07:33N 51°55' E 004°25'1 1.4
2015-Sep-04 06:33N 51°54' E 004°24'1 1.1
2015-Sep-04 05:33N 51°53' E 004°25'0 0.0
2015-Sep-04 04:33N 51°53' E 004°25'0 0.0
2015-Sep-04 03:33N 51°53' E 004°25'2 1.6
2015-Sep-04 02:33N 51°54' E 004°23'2 1.8
2015-Sep-04 01:33N 51°55' E 004°25'0 0.0
2015-Sep-04 00:33N 51°55' E 004°25'0 0.0
2015-Sep-03 23:33N 51°55' E 004°25'0 0.0
2015-Sep-03 22:33N 51°55' E 004°25'0 0.0
2015-Sep-03 21:33N 51°55' E 004°25'0 0.0
2015-Sep-03 20:33N 51°55' E 004°25'0 0.0
2015-Sep-03 19:33N 51°55' E 004°25'0 0.0
2015-Sep-03 18:33N 51°55' E 004°25'0 0.0
2015-Sep-03 17:33N 51°55' E 004°25'0 0.0
2015-Sep-03 16:33N 51°55' E 004°25'0 0.0
2015-Sep-03 15:33N 51°55' E 004°25'0 0.0
2015-Sep-03 14:33N 51°55' E 004°25'0 0.0
2015-Sep-03 13:33N 51°55' E 004°25'0 0.0
2015-Sep-03 12:33N 51°55' E 004°25'4 3.8
2015-Sep-03 11:33N 51°54' E 004°19'4 1.9
2015-Sep-03 09:33N 51°55' E 004°25'0 0.0
2015-Sep-03 08:33N 51°55' E 004°25'0 0.0
2015-Sep-03 07:33N 51°55' E 004°25'0 0.0
2015-Sep-03 06:33N 51°55' E 004°25'0 0.0
2015-Sep-03 05:33N 51°55' E 004°25'0 0.0
2015-Sep-03 04:33N 51°55' E 004°25'1 1.0
2015-Sep-03 03:33N 51°54' E 004°26'1 1.0
2015-Sep-03 02:33N 51°55' E 004°25'0 0.0
2015-Sep-03 01:33N 51°55' E 004°25'0 0.0
2015-Sep-03 00:33N 51°55' E 004°25'0 0.0
2015-Sep-02 23:33N 51°55' E 004°25'0 0.0
2015-Sep-02 22:33N 51°55' E 004°25'1 1.3
2015-Sep-02 21:33N 51°53' E 004°26'1 1.0
2015-Sep-02 20:33N 51°54' E 004°25'0 0.4
2015-Sep-02 19:33N 51°55' E 004°25'0 0.0
2015-Sep-02 18:33N 51°55' E 004°25'2 1.9
2015-Sep-02 17:33N 51°54' E 004°28'2 1.7
2015-Sep-02 16:33N 51°54' E 004°25'0 0.4
2015-Sep-02 15:33N 51°54' E 004°25'0 0.3
2015-Sep-02 14:33N 51°55' E 004°25'0 0.0
2015-Sep-02 13:33N 51°55' E 004°25'0 0.0
2015-Sep-02 12:33N 51°55' E 004°25'0 0.0
2015-Sep-02 11:33N 51°55' E 004°25'0 0.0
2015-Sep-02 10:33N 51°55' E 004°25'0 0.0
2015-Sep-02 09:33N 51°55' E 004°25'0 0.0
2015-Sep-02 08:33N 51°55' E 004°25'0 0.0
2015-Sep-02 07:33N 51°55' E 004°25'0 0.0
2015-Sep-02 06:33N 51°55' E 004°25'0 0.0
2015-Sep-02 05:33N 51°55' E 004°25'1 0.7
2015-Sep-02 04:33N 51°54' E 004°26'1 0.6
2015-Sep-02 03:33N 51°54' E 004°26'1 0.5
2015-Sep-02 02:33N 51°54' E 004°26'1 0.5
2015-Sep-02 01:33N 51°54' E 004°26'1 0.9
2015-Sep-02 00:33N 51°54' E 004°25'1 0.7
2015-Sep-01 23:33N 51°55' E 004°25'0 0.0
2015-Sep-01 22:33N 51°55' E 004°25'0 0.0
2015-Sep-01 21:33N 51°55' E 004°25'0 0.0
2015-Sep-01 20:33N 51°55' E 004°25'0 0.0
2015-Sep-01 19:33N 51°55' E 004°25'0 0.0
2015-Sep-01 18:33N 51°55' E 004°25'0 0.0
2015-Sep-01 17:33N 51°55' E 004°25'0 0.0
2015-Sep-01 16:33N 51°55' E 004°25'0 0.0
2015-Sep-01 15:33N 51°55' E 004°25'2 1.6
2015-Sep-01 14:33N 51°53' E 004°24'1 1.3
2015-Sep-01 13:33N 51°54' E 004°25'0 0.4
2015-Sep-01 12:33N 51°55' E 004°25'0 0.0
2015-Sep-01 11:33N 51°55' E 004°25'0 0.0
2015-Sep-01 10:33N 51°55' E 004°25'3 3.2
2015-Sep-01 09:33N 51°54' E 004°20'1 1.2
2015-Sep-01 08:34N 51°53' E 004°19'2 2.4
2015-Sep-01 07:33N 51°54' E 004°22'2 2.1
2015-Sep-01 06:33N 51°55' E 004°25'0 0.0
2015-Sep-01 05:33N 51°55' E 004°25'0 0.0
2015-Sep-01 04:33N 51°55' E 004°25'0 0.0
2015-Sep-01 03:33N 51°55' E 004°25'0 0.0
2015-Sep-01 02:33N 51°55' E 004°25'0 0.0
2015-Sep-01 01:33N 51°55' E 004°25'0 0.0
2015-Sep-01 00:33N 51°55' E 004°25'0 0.0
2015-Aug-31 23:33N 51°55' E 004°25'0 0.4
2015-Aug-31 22:33N 51°54' E 004°25'1 0.6
2015-Aug-31 21:33N 51°54' E 004°26'0 0.3
2015-Aug-31 20:33N 51°54' E 004°26'1 0.6
2015-Aug-31 19:33N 51°54' E 004°25'1 0.7
2015-Aug-31 18:33N 51°55' E 004°25'0 0.0
2015-Aug-31 17:33N 51°55' E 004°25'0 0.0
2015-Aug-31 16:33N 51°55' E 004°25'0 0.0
2015-Aug-31 15:33N 51°55' E 004°25'0 0.0
2015-Aug-31 14:33N 51°55' E 004°25'1 1.3
2015-Aug-31 13:33N 51°53' E 004°26'1 1.2
2015-Aug-31 12:33N 51°55' E 004°25'0 0.2
2015-Aug-31 11:33N 51°55' E 004°25'0 0.3
2015-Aug-31 10:33N 51°54' E 004°25'4 4.4
2015-Aug-31 09:33N 51°53' E 004°18'0 0.0
2015-Aug-31 08:33N 51°53' E 004°18'0 0.0
2015-Aug-31 07:33N 51°53' E 004°18'0 0.0
2015-Aug-31 06:33N 51°53' E 004°18'0 0.0
2015-Aug-31 05:33N 51°53' E 004°18'0 0.0
2015-Aug-31 04:33N 51°53' E 004°18'0 0.0
2015-Aug-31 03:33N 51°53' E 004°18'0 0.0
2015-Aug-31 02:33N 51°53' E 004°18'0 0.0
2015-Aug-31 01:33N 51°53' E 004°18'0 0.0
2015-Aug-31 00:33N 51°53' E 004°18'0 0.0
2015-Aug-30 23:33N 51°53' E 004°18'0 0.3
2015-Aug-30 22:33N 51°53' E 004°18'3 2.6
2015-Aug-30 21:33N 51°55' E 004°15'7 7.4
2015-Aug-30 20:34N 51°59' E 004°05'1 1.3
2015-Aug-30 19:33N 51°58' E 004°06'0 0.0
2015-Aug-30 18:33N 51°58' E 004°06'0 0.0
2015-Aug-30 17:33N 51°58' E 004°06'0 0.0
2015-Aug-30 16:33N 51°58' E 004°06'0 0.0
2015-Aug-30 15:33N 51°58' E 004°06'1 0.9
2015-Aug-30 14:33N 51°58' E 004°04'1 0.9
2015-Aug-30 13:33N 51°58' E 004°06'0 0.0
2015-Aug-30 12:33N 51°58' E 004°06'0 0.0
2015-Aug-30 11:34N 51°58' E 004°06'0 0.0
2015-Aug-30 10:34N 51°58' E 004°06'1 1.2
2015-Aug-30 09:33N 51°58' E 004°04'0 0.0
2015-Aug-30 08:34N 51°58' E 004°04'1 1.0
2015-Aug-30 07:34N 51°58' E 004°05'0 0.2
2015-Aug-30 06:34N 51°58' E 004°06'0 0.0
2015-Aug-30 05:33N 51°58' E 004°06'0 0.0
2015-Aug-30 04:34N 51°58' E 004°06'0 0.0
2015-Aug-30 03:34N 51°58' E 004°06'0 0.0
2015-Aug-30 02:33N 51°58' E 004°06'0 0.0
2015-Aug-30 01:33N 51°58' E 004°06'2 1.6
2015-Aug-30 00:33N 51°58' E 004°03'1 1.4
2015-Aug-29 23:34N 51°59' E 004°04'1 1.4
2015-Aug-29 22:33N 51°58' E 004°06'0 0.0
2015-Aug-29 21:34N 51°58' E 004°06'0 0.0
2015-Aug-29 20:33N 51°58' E 004°06'0 0.0
2015-Aug-29 19:34N 51°58' E 004°06'0 0.0
2015-Aug-29 18:33N 51°58' E 004°06'0 0.0
2015-Aug-29 17:34N 51°58' E 004°06'1 1.4
2015-Aug-29 16:33N 51°57' E 004°04'1 1.4
2015-Aug-29 15:33N 51°58' E 004°05'0 0.5
2015-Aug-29 14:34N 51°58' E 004°06'0 0.0
2015-Aug-29 13:34N 51°58' E 004°06'0 0.0
2015-Aug-29 12:34N 51°58' E 004°06'0 0.0
2015-Aug-29 11:34N 51°58' E 004°06'0 0.0
2015-Aug-29 10:34N 51°58' E 004°06'0 0.0
2015-Aug-29 09:33N 51°58' E 004°06'0 0.0
2015-Aug-29 08:34N 51°58' E 004°06'0 0.0
2015-Aug-29 07:34N 51°58' E 004°06'0 0.0
2015-Aug-29 06:34N 51°58' E 004°06'0 0.0
2015-Aug-29 05:34N 51°58' E 004°06'0 0.1
2015-Aug-29 04:34N 51°58' E 004°06'1 1.0
2015-Aug-29 03:34N 51°59' E 004°05'1 1.1
2015-Aug-29 02:34N 51°58' E 004°06'0 0.0
2015-Aug-29 01:33N 51°58' E 004°06'0 0.0
2015-Aug-29 00:34N 51°58' E 004°06'0 0.0
2015-Aug-28 23:34N 51°58' E 004°06'0 0.0
2015-Aug-28 22:34N 51°58' E 004°06'0 0.0
2015-Aug-28 21:34N 51°58' E 004°06'0 0.0
2015-Aug-28 20:34N 51°58' E 004°06'0 0.0
2015-Aug-28 19:34N 51°58' E 004°06'0 0.0
2015-Aug-28 18:34N 51°58' E 004°06'2 2.1
2015-Aug-28 17:34N 51°57' E 004°02'2 1.8
2015-Aug-28 16:34N 51°58' E 004°05'0 0.4
2015-Aug-28 15:33N 51°58' E 004°06'0 0.0
2015-Aug-28 14:34N 51°58' E 004°06'0 0.0
2015-Aug-28 13:34N 51°58' E 004°06'1 1.1
2015-Aug-28 12:34N 51°58' E 004°04'1 1.1
2015-Aug-28 11:34N 51°58' E 004°06'0 0.0
2015-Aug-28 10:33N 51°58' E 004°06'0 0.0
2015-Aug-28 09:33N 51°58' E 004°06'0 0.0
2015-Aug-28 08:34N 51°58' E 004°06'0 0.0
2015-Aug-28 07:33N 51°58' E 004°06'0 0.2
2015-Aug-28 06:34N 51°58' E 004°05'0 0.2
2015-Aug-28 05:34N 51°58' E 004°06'0 0.0
2015-Aug-28 04:34N 51°58' E 004°06'0 0.0
2015-Aug-28 03:33N 51°58' E 004°06'0 0.0
2015-Aug-28 02:33N 51°58' E 004°06'0 0.0
2015-Aug-28 01:34N 51°58' E 004°06'0 0.0
2015-Aug-28 00:33N 51°58' E 004°06'0 0.0
2015-Aug-27 23:34N 51°58' E 004°06'0 0.0
2015-Aug-27 22:34N 51°58' E 004°06'0 0.0
2015-Aug-27 21:34N 51°58' E 004°06'0 0.0
2015-Aug-27 20:34N 51°58' E 004°06'0 0.0
2015-Aug-27 19:34N 51°58' E 004°06'0 0.0
2015-Aug-27 18:34N 51°58' E 004°06'0 0.0
2015-Aug-27 17:33N 51°58' E 004°06'0 0.0
2015-Aug-27 16:34N 51°58' E 004°06'0 0.0
2015-Aug-27 15:33N 51°58' E 004°06'0 0.0
2015-Aug-27 14:33N 51°58' E 004°06'1 1.4
2015-Aug-27 13:34N 51°58' E 004°04'0 0.4
2015-Aug-27 12:33N 51°58' E 004°04'3 2.7
2015-Aug-27 11:34N 51°57' E 003°60'4 3.7
2015-Aug-27 10:34N 51°58' E 004°05'0 0.2
2015-Aug-27 09:34N 51°58' E 004°06'0 0.0
2015-Aug-27 08:34N 51°58' E 004°06'0 0.0
2015-Aug-27 07:34N 51°58' E 004°06'0 0.0
2015-Aug-27 06:34N 51°58' E 004°06'0 0.0
2015-Aug-27 05:33N 51°58' E 004°06'0 0.0
2015-Aug-27 04:34N 51°58' E 004°06'0 0.0
2015-Aug-27 03:34N 51°58' E 004°06'0 0.0
2015-Aug-27 02:34N 51°58' E 004°06'0 0.0
2015-Aug-27 01:34N 51°58' E 004°06'0 0.0
2015-Aug-27 00:34N 51°58' E 004°06'0 0.0
2015-Aug-26 23:34N 51°58' E 004°06'0 0.0
2015-Aug-26 22:34N 51°58' E 004°06'0 0.0
2015-Aug-26 21:33N 51°58' E 004°06'1 1.3
2015-Aug-26 20:34N 51°58' E 004°04'1 1.3
2015-Aug-26 19:33N 51°59' E 004°04'1 1.3
2015-Aug-26 18:34N 51°58' E 004°06'0 0.0
2015-Aug-26 17:33N 51°58' E 004°06'0 0.0
2015-Aug-26 16:34N 51°58' E 004°06'0 0.0
2015-Aug-26 15:34N 51°58' E 004°06'0 0.0
2015-Aug-26 14:34N 51°58' E 004°06'0 0.0
2015-Aug-26 13:33N 51°58' E 004°06'0 0.0
2015-Aug-26 12:34N 51°58' E 004°06'2 1.7
2015-Aug-26 11:33N 51°58' E 004°03'1 1.5
2015-Aug-26 10:33N 51°58' E 004°05'1 0.8
2015-Aug-26 09:34N 51°58' E 004°06'0 0.0
2015-Aug-26 08:34N 51°58' E 004°06'0 0.0
2015-Aug-26 07:34N 51°58' E 004°06'3 3.4
2015-Aug-26 06:34N 51°59' E 004°00'0 0.4
2015-Aug-26 05:34N 51°59' E 004°01'3 3.0
2015-Aug-26 04:34N 51°58' E 004°06'0 0.0
2015-Aug-26 03:34N 51°58' E 004°06'  

Dump ship's entire track history